Time;durP1;ratioP1;P1;durP2;ratioP2;P2;SDS_P1;SDS_P2;PMS_P1;PMS_P2;Temp;Humidity;BMP_temperature;BMP_pressure;BME280_temperature;BME280_humidity;BME280_pressure;Samples;Min_cycle;Max_cycle;Signal;HPM_P1;HPM_P2
2022/01/01 05:02:16;;;;;;;27.83;17.87;;;10.70;99.90;;;;;;5172148;23;20537;-74
2022/01/01 05:04:43;;;;;;;34.27;20.03;;;10.70;99.90;;;;;;4995779;28;20882;-73
2022/01/01 05:07:10;;;;;;;27.80;17.43;;;10.70;99.90;;;;;;4996000;28;20533;-74
2022/01/01 05:09:37;;;;;;;34.17;18.00;;;10.70;99.90;;;;;;4995673;28;20494;-74
2022/01/01 05:12:05;;;;;;;31.27;18.30;;;10.70;99.90;;;;;;4995870;28;20565;-74
2022/01/01 05:14:33;;;;;;;34.30;17.90;;;10.70;99.90;;;;;;4996252;28;20546;-72
2022/01/01 05:17:00;;;;;;;28.83;17.37;;;10.70;99.90;;;;;;4995562;28;20935;-73
2022/01/01 05:19:28;;;;;;;29.23;16.80;;;10.70;99.90;;;;;;4995621;28;20479;-73
2022/01/01 05:21:56;;;;;;;28.07;17.33;;;10.60;99.90;;;;;;4995568;28;20477;-72
2022/01/01 05:24:23;;;;;;;27.90;16.50;;;10.60;99.90;;;;;;4995715;28;20475;-73
2022/01/01 05:26:50;;;;;;;30.30;17.50;;;10.60;99.90;;;;;;4997237;28;20539;-72
2022/01/01 05:29:17;;;;;;;28.27;16.83;;;10.60;99.90;;;;;;4995511;28;20589;-72
2022/01/01 05:31:44;;;;;;;31.07;16.40;;;10.60;99.90;;;;;;4995284;28;20463;-73
2022/01/01 05:34:11;;;;;;;25.23;15.67;;;10.60;99.90;;;;;;4995445;28;20570;-72
2022/01/01 05:36:39;;;;;;;30.80;17.00;;;10.60;99.90;;;;;;4995561;28;20538;-72
2022/01/01 05:39:08;;;;;;;22.53;14.40;;;10.70;99.90;;;;;;4995161;28;20529;-72
2022/01/01 05:41:35;;;;;;;26.30;16.40;;;10.70;99.90;;;;;;4995300;28;20470;-72
2022/01/01 05:44:02;;;;;;;27.13;15.50;;;10.60;99.90;;;;;;4995217;28;20457;-72
2022/01/01 05:46:31;;;;;;;30.17;16.80;;;10.70;99.90;;;;;;4995095;28;20539;-72
2022/01/01 05:48:58;;;;;;;27.90;15.70;;;10.70;99.90;;;;;;4995044;28;20586;-72
2022/01/01 05:51:25;;;;;;;27.37;14.20;;;10.70;99.90;;;;;;4995289;28;20485;-72
2022/01/01 05:53:53;;;;;;;25.97;15.40;;;10.70;99.90;;;;;;4994985;28;20998;-72
2022/01/01 05:56:20;;;;;;;25.70;14.73;;;10.70;99.90;;;;;;4995143;28;20546;-72
2022/01/01 05:58:47;;;;;;;27.63;15.03;;;10.60;99.90;;;;;;4995175;28;20533;-72
2022/01/01 06:01:14;;;;;;;25.90;15.30;;;10.60;99.90;;;;;;4994191;28;21006;-73
2022/01/01 06:03:41;;;;;;;26.10;16.80;;;10.60;99.90;;;;;;4995102;28;20636;-72
2022/01/01 06:06:08;;;;;;;23.10;14.60;;;10.60;99.90;;;;;;4994995;28;20533;-73
2022/01/01 06:08:35;;;;;;;25.00;14.40;;;10.50;99.90;;;;;;4994719;28;20501;-72
2022/01/01 06:11:03;;;;;;;23.43;14.33;;;10.50;99.90;;;;;;4994520;28;20502;-72
2022/01/01 06:13:30;;;;;;;23.33;14.50;;;10.50;99.90;;;;;;4994533;28;20541;-72
2022/01/01 06:15:57;;;;;;;25.77;15.00;;;10.50;99.90;;;;;;4994851;28;20537;-73
2022/01/01 06:18:24;;;;;;;22.80;13.20;;;10.40;99.90;;;;;;4994735;28;20557;-73
2022/01/01 06:20:50;;;;;;;26.93;16.70;;;10.40;99.90;;;;;;4994452;28;20554;-73
2022/01/01 06:23:18;;;;;;;22.90;13.87;;;10.40;99.90;;;;;;4994550;28;20451;-73
2022/01/01 06:25:44;;;;;;;24.90;14.57;;;10.40;99.90;;;;;;4994422;28;20451;-72
2022/01/01 06:28:13;;;;;;;21.83;14.20;;;10.40;99.90;;;;;;4994274;28;20905;-72
2022/01/01 06:30:40;;;;;;;23.30;14.70;;;10.40;99.90;;;;;;4994296;28;20471;-73
2022/01/01 06:33:11;;;;;;;23.20;14.30;;;10.30;99.90;;;;;;4994475;28;20461;-72
2022/01/01 06:35:39;;;;;;;24.03;14.70;;;10.20;99.90;;;;;;4994413;28;20458;-72
2022/01/01 06:38:06;;;;;;;19.20;13.47;;;10.20;99.90;;;;;;4994308;28;20459;-72
2022/01/01 06:40:33;;;;;;;20.27;12.33;;;10.20;99.90;;;;;;4993724;28;20558;-72
2022/01/01 06:42:59;;;;;;;20.23;13.57;;;10.10;99.90;;;;;;4994348;28;20546;-73
2022/01/01 06:45:28;;;;;;;18.57;12.13;;;10.10;99.90;;;;;;4994256;28;20538;-72
2022/01/01 06:47:55;;;;;;;22.00;13.63;;;10.10;99.90;;;;;;4994122;28;20493;-72
2022/01/01 06:50:21;;;;;;;28.33;15.50;;;10.00;99.90;;;;;;4993699;28;20581;-73
2022/01/01 06:52:48;;;;;;;27.50;15.77;;;10.00;99.90;;;;;;4993742;28;20534;-72
2022/01/01 06:55:15;;;;;;;22.83;14.10;;;10.00;99.90;;;;;;4993843;28;20557;-72
2022/01/01 06:57:43;;;;;;;28.07;16.47;;;10.00;99.90;;;;;;4993853;28;20549;-73
2022/01/01 07:00:11;;;;;;;30.40;16.70;;;10.00;99.90;;;;;;4993829;28;20883;-73
2022/01/01 07:02:40;;;;;;;31.80;17.20;;;9.90;99.90;;;;;;4993721;28;21030;-73
2022/01/01 07:05:09;;;;;;;28.33;16.53;;;9.90;99.90;;;;;;4993773;28;20960;-72
2022/01/01 07:07:36;;;;;;;30.97;17.30;;;10.00;99.90;;;;;;4993553;28;20494;-72
2022/01/01 07:10:04;;;;;;;32.73;19.57;;;10.00;99.90;;;;;;4993631;28;20496;-73
2022/01/01 07:12:31;;;;;;;31.13;17.53;;;10.00;99.90;;;;;;4993187;28;20567;-74
2022/01/01 07:14:58;;;;;;;34.07;18.13;;;10.00;99.90;;;;;;4994069;28;20643;-73
2022/01/01 07:17:25;;;;;;;40.53;18.70;;;10.00;99.90;;;;;;4993719;28;20541;-73
2022/01/01 07:19:53;;;;;;;32.83;18.87;;;10.00;99.90;;;;;;4993470;28;20455;-73
2022/01/01 07:22:20;;;;;;;31.57;17.97;;;9.90;99.90;;;;;;4993790;28;20558;-66
2022/01/01 07:24:49;;;;;;;33.13;18.03;;;9.90;99.90;;;;;;4993507;28;20451;-65
2022/01/01 07:27:16;;;;;;;28.40;17.50;;;9.90;99.90;;;;;;4993524;28;20455;-66
2022/01/01 07:29:43;;;;;;;29.13;16.47;;;9.90;99.90;;;;;;4992976;28;21074;-66
2022/01/01 07:32:10;;;;;;;32.17;17.97;;;9.90;99.90;;;;;;4993253;28;20554;-73
2022/01/01 07:34:37;;;;;;;31.43;17.47;;;9.90;99.90;;;;;;4993404;28;20538;-73
2022/01/01 07:37:05;;;;;;;30.87;18.27;;;9.90;99.90;;;;;;4993433;28;20534;-73
2022/01/01 07:39:32;;;;;;;39.87;18.50;;;9.80;99.90;;;;;;4992930;28;20487;-75
2022/01/01 07:42:00;;;;;;;32.83;16.17;;;9.90;99.90;;;;;;4993218;28;20514;-73
2022/01/01 07:44:26;;;;;;;34.97;18.87;;;9.90;99.90;;;;;;4993210;28;20823;-73
2022/01/01 07:46:55;;;;;;;31.97;18.43;;;9.90;99.90;;;;;;4992953;28;20537;-74
2022/01/01 07:49:22;;;;;;;29.37;17.43;;;9.90;99.90;;;;;;4992606;28;20517;-73
2022/01/01 07:51:49;;;;;;;32.67;18.07;;;9.90;99.90;;;;;;4993070;28;20513;-73
2022/01/01 07:54:17;;;;;;;35.97;20.37;;;9.90;99.90;;;;;;4992823;28;20451;-73
2022/01/01 07:56:44;;;;;;;29.63;18.90;;;9.90;99.90;;;;;;4993231;28;20546;-73
2022/01/01 07:59:11;;;;;;;32.30;16.77;;;9.90;99.90;;;;;;4992944;28;20538;-73
2022/01/01 08:01:40;;;;;;;31.97;17.80;;;9.90;99.90;;;;;;4992591;28;20493;-74
2022/01/01 08:04:07;;;;;;;32.13;17.80;;;9.90;99.90;;;;;;4992981;28;20466;-73
2022/01/01 08:06:34;;;;;;;28.00;16.17;;;9.90;99.90;;;;;;4993033;28;20546;-74
2022/01/01 08:09:01;;;;;;;33.33;18.73;;;9.90;99.90;;;;;;4992705;28;20546;-74
2022/01/01 08:11:29;;;;;;;32.10;17.10;;;9.90;99.90;;;;;;4992578;28;20558;-73
2022/01/01 08:13:56;;;;;;;33.80;18.90;;;9.90;99.90;;;;;;4992641;28;20831;-73
2022/01/01 08:16:23;;;;;;;35.47;18.73;;;9.90;99.90;;;;;;4992838;28;20542;-74
2022/01/01 08:18:50;;;;;;;34.77;18.00;;;9.90;99.90;;;;;;4992494;28;20546;-74
2022/01/01 08:21:17;;;;;;;29.93;17.77;;;9.90;99.90;;;;;;4992541;28;20554;-75
2022/01/01 08:23:44;;;;;;;29.73;16.00;;;9.90;99.90;;;;;;4992344;28;20549;-73
2022/01/01 08:26:11;;;;;;;36.13;18.67;;;9.90;99.90;;;;;;4992880;28;20509;-73
2022/01/01 08:28:39;;;;;;;31.77;17.80;;;9.90;99.90;;;;;;4992425;28;20542;-74
2022/01/01 08:31:06;;;;;;;33.00;17.23;;;10.00;99.90;;;;;;4991474;28;20585;-74
2022/01/01 08:33:33;;;;;;;32.83;18.87;;;10.00;99.90;;;;;;4991707;28;20490;-74
2022/01/01 08:36:03;;;;;;;32.27;18.50;;;10.00;99.90;;;;;;4991613;28;20461;-73
2022/01/01 08:38:30;;;;;;;29.67;17.67;;;10.00;99.90;;;;;;4991646;28;20447;-73
2022/01/01 08:40:58;;;;;;;33.10;18.00;;;10.00;99.90;;;;;;4991210;28;20554;-74
2022/01/01 08:43:25;;;;;;;36.07;20.50;;;10.00;99.90;;;;;;4991367;28;20545;-73
2022/01/01 08:45:54;;;;;;;32.00;16.43;;;10.10;99.90;;;;;;4991632;28;20466;-75
2022/01/01 08:48:21;;;;;;;28.70;15.77;;;10.10;99.90;;;;;;4991684;28;20455;-74
2022/01/01 08:50:48;;;;;;;26.50;16.10;;;10.00;99.90;;;;;;4991017;28;20505;-73
2022/01/01 08:53:15;;;;;;;28.27;17.20;;;10.00;99.90;;;;;;4991496;28;20530;-73
2022/01/01 08:55:42;;;;;;;30.80;17.30;;;10.10;99.90;;;;;;4991324;28;20538;-75
2022/01/01 08:58:09;;;;;;;30.57;16.00;;;10.10;99.90;;;;;;4991185;28;21018;-73
2022/01/01 09:00:36;;;;;;;27.77;17.63;;;10.10;99.90;;;;;;4991106;28;20590;-73
2022/01/01 09:03:04;;;;;;;27.53;17.80;;;10.10;99.90;;;;;;4992050;28;20494;-73
2022/01/01 09:05:31;;;;;;;28.10;17.13;;;10.10;99.90;;;;;;4992060;28;20534;-74
2022/01/01 09:07:58;;;;;;;31.87;19.97;;;10.10;99.90;;;;;;4992157;28;21038;-73
2022/01/01 09:10:25;;;;;;;33.90;19.53;;;10.20;99.90;;;;;;4991597;28;20586;-67
2022/01/01 09:12:52;;;;;;;35.83;18.83;;;10.20;99.90;;;;;;4992032;28;21026;-66
2022/01/01 09:15:18;;;;;;;36.07;18.00;;;10.20;99.90;;;;;;4991932;28;21046;-67
2022/01/01 09:17:45;;;;;;;32.20;18.60;;;10.30;99.90;;;;;;4992141;28;20455;-66
2022/01/01 09:20:14;;;;;;;28.20;17.57;;;10.30;99.90;;;;;;4991730;28;20533;-66
2022/01/01 09:22:40;;;;;;;28.50;17.60;;;10.40;99.90;;;;;;4991994;28;20534;-66
2022/01/01 09:25:08;;;;;;;29.27;17.60;;;10.40;99.90;;;;;;4991786;28;20493;-67
2022/01/01 09:27:35;;;;;;;28.40;18.33;;;10.40;99.90;;;;;;4991879;28;20542;-66
2022/01/01 09:30:02;;;;;;;30.93;19.80;;;10.50;99.90;;;;;;4991632;28;20585;-66
2022/01/01 09:32:28;;;;;;;32.57;20.23;;;10.50;99.90;;;;;;4991710;28;20471;-66
2022/01/01 09:34:56;;;;;;;25.87;17.77;;;10.50;99.90;;;;;;4992312;28;20546;-73
2022/01/01 09:37:25;;;;;;;31.10;19.20;;;10.60;99.90;;;;;;4995499;28;20450;-73
2022/01/01 09:39:52;;;;;;;37.67;20.77;;;10.60;99.90;;;;;;4995453;28;20522;-73
2022/01/01 09:42:22;;;;;;;33.83;19.90;;;10.60;99.90;;;;;;4995404;28;21009;-73
2022/01/01 09:44:49;;;;;;;30.10;18.40;;;10.70;99.90;;;;;;4995409;28;20451;-73
2022/01/01 09:47:16;;;;;;;28.70;17.67;;;10.70;99.90;;;;;;4995529;28;20455;-74
2022/01/01 09:49:43;;;;;;;23.83;16.00;;;10.70;99.90;;;;;;4995359;28;20602;-73
2022/01/01 09:52:12;;;;;;;25.00;15.60;;;10.70;99.90;;;;;;4995548;28;20554;-75
2022/01/01 09:54:40;;;;;;;23.63;14.67;;;10.70;99.90;;;;;;4995400;28;20928;-73
2022/01/01 09:57:07;;;;;;;23.47;14.77;;;10.80;99.90;;;;;;4995625;28;20982;-73
2022/01/01 09:59:34;;;;;;;21.83;14.37;;;10.80;99.90;;;;;;4995324;28;20912;-73
2022/01/01 10:02:02;;;;;;;22.03;13.93;;;10.80;99.90;;;;;;4995456;28;20514;-74
2022/01/01 10:04:42;;;;;;;24.57;14.50;;;10.90;99.90;;;;;;4995329;28;20986;-74
2022/01/01 10:07:09;;;;;;;21.50;14.77;;;11.00;99.90;;;;;;4995250;28;20937;-73
2022/01/01 10:09:37;;;;;;;32.80;22.43;;;11.00;99.90;;;;;;4995080;28;20566;-75
2022/01/01 10:12:10;;;;;;;25.20;17.00;;;11.10;99.90;;;;;;4994955;28;20471;-76
2022/01/01 10:14:38;;;;;;;20.33;12.80;;;11.20;99.90;;;;;;4995065;28;20462;-76
2022/01/01 10:17:18;;;;;;;18.70;11.90;;;11.20;99.90;;;;;;4994919;28;20542;-75
2022/01/01 10:19:46;;;;;;;18.87;11.77;;;11.20;99.90;;;;;;4994578;28;20483;-75
2022/01/01 10:22:14;;;;;;;18.30;12.27;;;11.30;99.90;;;;;;4994884;28;20553;-75
2022/01/01 10:27:46;;;;;;;12.30;8.77;;;11.60;99.90;;;;;;4994337;28;20454;-75
2022/01/01 10:30:21;;;;;;;13.13;9.37;;;11.80;99.90;;;;;;4991188;28;20487;-75
2022/01/01 10:33:06;;;;;;;13.77;9.90;;;12.00;99.90;;;;;;4994549;28;20462;-75
2022/01/01 10:35:40;;;;;;;14.50;10.20;;;12.10;99.90;;;;;;4994548;28;20478;-75
2022/01/01 10:38:14;;;;;;;9.80;7.23;;;12.20;99.90;;;;;;4994410;28;20531;-73
2022/01/01 10:40:42;;;;;;;10.70;6.97;;;12.20;99.90;;;;;;4993966;28;20455;-76
2022/01/01 10:43:11;;;;;;;10.83;7.40;;;12.30;99.90;;;;;;4994334;28;20443;-73
2022/01/01 10:45:40;;;;;;;8.67;6.60;;;12.50;99.90;;;;;;4994186;28;20947;-74
2022/01/01 10:48:16;;;;;;;9.90;7.10;;;12.60;99.90;;;;;;4993878;28;20479;-74
2022/01/01 10:50:44;;;;;;;9.93;6.07;;;12.80;99.90;;;;;;5006821;28;20498;-73
2022/01/01 10:53:12;;;;;;;8.30;5.60;;;13.00;99.90;;;;;;5013874;28;20458;-74
2022/01/01 10:55:42;;;;;;;8.63;6.17;;;13.20;99.90;;;;;;5013665;28;20450;-74
2022/01/01 10:58:16;;;;;;;12.10;6.73;;;13.20;99.90;;;;;;5007150;28;20989;-74
2022/01/01 11:00:43;;;;;;;10.77;7.60;;;13.30;99.90;;;;;;4988637;28;20515;-74
2022/01/01 11:03:15;;;;;;;9.90;7.23;;;13.90;99.90;;;;;;4992393;28;20250;-75
2022/01/01 11:05:42;;;;;;;11.23;6.93;;;14.10;99.90;;;;;;4985930;28;20467;-74
2022/01/01 11:08:10;;;;;;;9.70;7.23;;;14.10;99.90;;;;;;4974250;28;20518;-74
2022/01/01 11:10:38;;;;;;;12.67;8.30;;;14.20;99.90;;;;;;4973889;28;20590;-74
2022/01/01 11:13:07;;;;;;;9.43;6.47;;;14.20;99.90;;;;;;4974607;28;20484;-74
2022/01/01 11:15:36;;;;;;;10.50;6.50;;;14.40;99.90;;;;;;4974161;28;20464;-74
2022/01/01 11:18:03;;;;;;;7.57;5.60;;;14.60;99.90;;;;;;4974062;28;20539;-75
2022/01/01 11:20:34;;;;;;;7.07;6.10;;;14.70;99.90;;;;;;4973298;28;20480;-74
2022/01/01 11:23:07;;;;;;;8.60;5.53;;;14.90;99.90;;;;;;4974166;28;20440;-75
2022/01/01 11:25:36;;;;;;;8.60;6.30;;;15.00;99.90;;;;;;5017782;23;20986;-75
2022/01/01 11:28:07;;;;;;;7.73;5.90;;;14.90;99.90;;;;;;4993138;28;20553;-75
2022/01/01 11:30:35;;;;;;;9.80;6.63;;;15.10;99.90;;;;;;4992634;28;20482;-76
2022/01/01 11:33:07;;;;;;;8.40;5.77;;;15.10;99.90;;;;;;4992982;28;20868;-75
2022/01/01 11:35:36;;;;;;;10.13;6.90;;;15.00;99.90;;;;;;4993243;28;20525;-76
2022/01/01 11:38:05;;;;;;;11.00;6.07;;;14.90;99.90;;;;;;4993302;28;20593;-75
2022/01/01 11:40:44;;;;;;;7.57;5.47;;;15.00;99.90;;;;;;4992036;28;20479;-75
2022/01/01 11:43:40;;;;;;;7.57;5.47;;;15.20;99.90;;;;;;4993007;28;20526;-75
2022/01/01 11:46:12;;;;;;;9.57;6.27;;;15.40;99.90;;;;;;4992687;28;20555;-75
2022/01/01 11:48:46;;;;;;;8.00;5.33;;;15.30;99.90;;;;;;4992498;28;20960;-76
2022/01/01 11:51:26;;;;;;;9.47;6.40;;;15.20;99.90;;;;;;4993172;28;20565;-75
2022/01/01 11:54:24;;;;;;;9.53;5.63;;;15.10;99.90;;;;;;4992712;28;20439;-75
2022/01/01 11:57:01;;;;;;;6.40;5.20;;;15.10;99.90;;;;;;4992971;28;20503;-75
2022/01/01 11:59:29;;;;;;;9.60;5.60;;;15.20;99.90;;;;;;4991284;28;20458;-75
2022/01/01 12:01:58;;;;;;;7.87;5.13;;;15.20;99.90;;;;;;4992724;28;20478;-76
2022/01/01 12:04:31;;;;;;;7.13;5.33;;;15.10;99.90;;;;;;4992636;28;21005;-76
2022/01/01 12:07:00;;;;;;;9.63;5.30;;;15.10;99.90;;;;;;4992626;28;20482;-76
2022/01/01 12:09:27;;;;;;;10.03;5.70;;;15.20;99.90;;;;;;4991818;28;20517;-76
2022/01/01 12:11:56;;;;;;;9.33;6.20;;;15.20;99.90;;;;;;4992500;28;20510;-76
2022/01/01 12:14:25;;;;;;;9.33;5.70;;;15.20;99.90;;;;;;4992472;28;20613;-76
2022/01/01 12:16:54;;;;;;;8.20;4.90;;;15.20;99.90;;;;;;4993288;28;20475;-75
2022/01/01 12:19:24;;;;;;;6.77;4.90;;;15.20;99.90;;;;;;4992036;28;20490;-76
2022/01/01 12:22:03;;;;;;;7.93;5.10;;;15.30;99.90;;;;;;4992615;28;21002;-77
2022/01/01 12:24:35;;;;;;;10.83;5.23;;;15.30;99.90;;;;;;4993405;28;20439;-77
2022/01/01 12:27:10;;;;;;;10.90;5.50;;;15.50;99.90;;;;;;4994733;28;20487;-76
2022/01/01 12:29:37;;;;;;;7.97;5.83;;;15.70;99.90;;;;;;4990369;28;20545;-76
2022/01/01 12:32:07;;;;;;;8.80;4.77;;;15.90;99.90;;;;;;4991466;28;20513;-76
2022/01/01 12:34:36;;;;;;;6.37;4.73;;;15.90;99.90;;;;;;4991794;28;20505;-76
2022/01/01 12:37:08;;;;;;;5.77;4.63;;;15.90;99.90;;;;;;4992600;28;20459;-76
2022/01/01 12:40:00;;;;;;;7.30;5.50;;;16.00;99.90;;;;;;4990551;28;20847;-76
2022/01/01 12:42:29;;;;;;;7.50;5.43;;;16.30;99.90;;;;;;4991065;28;20450;-77
2022/01/01 12:44:58;;;;;;;6.97;4.80;;;16.30;99.90;;;;;;4991011;28;20990;-77
2022/01/01 12:47:27;;;;;;;6.77;5.00;;;16.30;99.90;;;;;;4991350;28;20903;-76
2022/01/01 12:49:55;;;;;;;8.60;5.97;;;16.20;99.90;;;;;;4990806;28;20542;-77
2022/01/01 12:52:24;;;;;;;8.13;5.07;;;16.00;99.90;;;;;;4990992;28;20581;-77
2022/01/01 12:54:51;;;;;;;7.30;4.97;;;15.80;99.90;;;;;;4990924;28;20561;-77
2022/01/01 12:57:19;;;;;;;9.43;5.03;;;15.80;99.90;;;;;;4991019;28;21046;-76
2022/01/01 12:59:48;;;;;;;8.77;5.30;;;15.80;99.90;;;;;;4990289;28;20474;-76
2022/01/01 13:02:15;;;;;;;7.93;4.90;;;15.80;99.90;;;;;;4991326;28;20458;-76
2022/01/01 13:04:42;;;;;;;10.10;4.90;;;15.90;99.90;;;;;;4991148;28;20461;-77
2022/01/01 13:07:09;;;;;;;6.83;4.87;;;15.90;99.90;;;;;;4990521;28;20463;-77
2022/01/01 13:09:38;;;;;;;8.27;4.37;;;15.80;99.90;;;;;;4990694;28;20486;-78
2022/01/01 13:12:07;;;;;;;8.00;4.77;;;15.90;99.90;;;;;;4996311;28;20490;-76
2022/01/01 13:14:36;;;;;;;9.17;4.87;;;15.90;99.90;;;;;;4994846;28;20557;-76
2022/01/01 13:17:03;;;;;;;7.53;4.60;;;15.90;99.90;;;;;;4996026;28;20512;-76
2022/01/01 13:19:33;;;;;;;7.90;4.70;;;15.70;99.90;;;;;;4996452;28;20447;-77
2022/01/01 13:22:01;;;;;;;7.20;4.27;;;15.70;99.90;;;;;;4997237;28;20795;-78
2022/01/01 13:24:30;;;;;;;8.30;5.50;;;15.70;99.90;;;;;;4996585;28;20451;-80
2022/01/01 13:26:59;;;;;;;7.63;5.40;;;15.70;99.90;;;;;;4995461;28;20455;-76
2022/01/01 13:29:26;;;;;;;7.40;5.07;;;15.70;99.90;;;;;;4995496;28;20457;-76
2022/01/01 13:31:54;;;;;;;11.83;5.80;;;15.70;99.90;;;;;;4995470;28;21204;-76
2022/01/01 13:34:21;;;;;;;6.83;5.00;;;15.80;99.90;;;;;;4995502;28;20482;-76
2022/01/01 13:36:48;;;;;;;7.33;4.60;;;15.80;99.90;;;;;;4995584;28;20510;-76
2022/01/01 13:39:17;;;;;;;6.97;5.30;;;15.80;99.90;;;;;;4995300;28;20451;-76
2022/01/01 13:41:46;;;;;;;6.50;4.70;;;15.80;99.90;;;;;;4995731;28;20471;-76
2022/01/01 13:44:19;;;;;;;7.17;5.20;;;16.00;99.90;;;;;;4995284;28;20814;-76
2022/01/01 13:46:47;;;;;;;10.77;5.70;;;15.90;99.90;;;;;;4995535;28;20566;-76
2022/01/01 13:49:14;;;;;;;6.27;4.87;;;15.90;99.90;;;;;;4995326;28;20513;-76
2022/01/01 13:51:41;;;;;;;7.23;4.83;;;15.90;99.90;;;;;;4994949;28;20491;-76
2022/01/01 13:54:10;;;;;;;9.50;5.13;;;15.90;99.90;;;;;;4994945;28;20494;-75
2022/01/01 13:56:37;;;;;;;7.70;4.57;;;15.80;99.90;;;;;;4994899;28;21017;-75
2022/01/01 13:59:05;;;;;;;8.70;5.30;;;15.60;99.90;;;;;;4994621;28;20543;-75
2022/01/01 14:01:36;;;;;;;8.83;5.67;;;15.50;99.90;;;;;;4994987;28;20451;-76
2022/01/01 14:04:04;;;;;;;7.80;5.77;;;15.50;99.90;;;;;;4995420;28;20527;-76
2022/01/01 14:06:31;;;;;;;9.60;5.63;;;15.50;99.90;;;;;;4995004;28;20566;-76
2022/01/01 14:08:59;;;;;;;11.90;5.80;;;15.40;99.90;;;;;;4992741;28;20896;-76
2022/01/01 14:11:31;;;;;;;7.80;5.83;;;15.40;99.90;;;;;;4992820;28;21014;-76
2022/01/01 14:14:09;;;;;;;10.17;5.60;;;15.30;99.90;;;;;;4992922;28;20533;-76
2022/01/01 14:16:49;;;;;;;10.10;5.63;;;15.30;99.90;;;;;;4993135;28;20553;-76
2022/01/01 14:19:17;;;;;;;7.70;5.10;;;15.30;99.90;;;;;;4993339;28;20891;-76
2022/01/01 14:21:45;;;;;;;7.97;5.47;;;15.30;99.90;;;;;;4993016;28;20881;-76
2022/01/01 14:24:17;;;;;;;8.67;5.70;;;15.30;99.90;;;;;;4994368;28;20530;-76
2022/01/01 14:26:45;;;;;;;8.50;5.87;;;15.20;99.90;;;;;;4994381;28;20566;-76
2022/01/01 14:29:13;;;;;;;8.40;4.93;;;15.20;99.90;;;;;;4994156;28;20639;-76
2022/01/01 14:31:41;;;;;;;12.60;6.37;;;15.20;99.90;;;;;;4994512;28;20486;-76
2022/01/01 14:34:13;;;;;;;7.03;4.93;;;15.10;99.90;;;;;;4994552;28;20465;-76
2022/01/01 14:36:41;;;;;;;8.67;5.17;;;15.10;99.90;;;;;;4994567;28;20566;-76
2022/01/01 14:39:08;;;;;;;9.30;5.70;;;15.00;99.90;;;;;;4994330;28;20537;-76
2022/01/01 14:41:35;;;;;;;8.00;5.23;;;15.00;99.90;;;;;;4994509;28;20475;-76
2022/01/01 14:44:02;;;;;;;9.43;5.70;;;15.00;99.90;;;;;;4994186;28;20537;-76
2022/01/01 14:46:32;;;;;;;8.80;5.20;;;14.90;99.90;;;;;;4994186;28;20554;-68
2022/01/01 14:49:08;;;;;;;10.90;5.53;;;14.90;99.90;;;;;;4994029;28;20443;-68
2022/01/01 14:51:44;;;;;;;6.40;4.87;;;14.90;99.90;;;;;;4994212;28;20474;-68
2022/01/01 14:54:27;;;;;;;7.97;5.03;;;14.90;99.90;;;;;;4993869;28;20473;-68
2022/01/01 14:57:02;;;;;;;10.23;5.33;;;14.80;99.90;;;;;;4994004;28;20511;-73
2022/01/01 14:59:36;;;;;;;7.87;5.13;;;14.70;99.90;;;;;;4993723;28;20522;-73
2022/01/01 15:02:05;;;;;;;10.93;5.90;;;14.70;99.90;;;;;;4993920;28;20861;-73
2022/01/01 15:04:32;;;;;;;11.33;5.47;;;14.70;99.90;;;;;;4993587;28;20541;-73
2022/01/01 15:07:01;;;;;;;13.73;5.53;;;14.60;99.90;;;;;;4993976;28;20501;-73
2022/01/01 15:09:30;;;;;;;11.37;4.90;;;14.60;99.90;;;;;;4992375;28;20538;-72
2022/01/01 15:11:58;;;;;;;12.00;5.90;;;14.50;99.90;;;;;;4992605;28;20581;-75
2022/01/01 15:14:26;;;;;;;8.13;4.50;;;14.50;99.90;;;;;;4993665;28;20530;-76
2022/01/01 15:16:56;;;;;;;7.50;4.57;;;14.40;99.90;;;;;;4993402;28;20499;-76
2022/01/01 15:19:23;;;;;;;5.30;4.17;;;14.40;99.90;;;;;;4993499;28;20510;-77
2022/01/01 15:22:00;;;;;;;5.90;4.27;;;14.30;99.90;;;;;;4993642;28;20526;-77
2022/01/01 15:24:32;;;;;;;7.50;4.27;;;14.20;99.90;;;;;;4993486;28;20517;-77
2022/01/01 15:27:03;;;;;;;5.43;3.53;;;14.20;99.90;;;;;;4993229;28;20469;-76
2022/01/01 15:29:39;;;;;;;4.90;3.70;;;14.10;99.90;;;;;;4993045;28;20478;-68
2022/01/01 15:35:03;;;;;;;7.10;4.40;;;14.00;99.90;;;;;;4977101;28;20535;-68
2022/01/01 15:37:34;;;;;;;5.63;3.70;;;13.80;99.90;;;;;;4987551;28;21095;-67
2022/01/01 15:40:06;;;;;;;7.10;4.00;;;13.80;99.90;;;;;;4979817;28;20526;-68
2022/01/01 15:42:34;;;;;;;4.90;3.50;;;13.60;99.90;;;;;;4974050;28;20436;-76
2022/01/01 15:45:01;;;;;;;7.33;3.93;;;13.60;99.90;;;;;;4973597;28;20486;-77
2022/01/01 15:47:28;;;;;;;6.80;4.50;;;13.50;99.90;;;;;;4973937;28;20488;-76
2022/01/01 15:49:55;;;;;;;5.03;3.43;;;13.40;99.90;;;;;;4973391;28;20456;-76
2022/01/01 15:52:23;;;;;;;6.33;4.03;;;13.40;99.90;;;;;;4973458;28;21011;-76
2022/01/01 15:54:52;;;;;;;6.10;3.73;;;13.30;99.90;;;;;;4973539;28;20506;-76
2022/01/01 15:57:26;;;;;;;4.20;3.43;;;13.20;99.90;;;;;;4973387;28;20865;-76
2022/01/01 15:59:54;;;;;;;6.60;4.00;;;13.10;99.90;;;;;;4973304;28;20550;-77
2022/01/01 16:02:31;;;;;;;4.90;3.63;;;13.10;99.90;;;;;;4973313;28;20538;-76
2022/01/01 16:05:05;;;;;;;5.83;4.83;;;12.90;99.90;;;;;;4973532;28;20476;-76
2022/01/01 16:07:35;;;;;;;6.27;5.50;;;12.90;99.90;;;;;;4973598;28;20519;-76
2022/01/01 16:10:06;;;;;;;9.37;6.43;;;12.80;99.90;;;;;;4975705;28;20807;-78
2022/01/01 16:12:35;;;;;;;9.20;6.50;;;12.70;99.90;;;;;;4989631;28;20574;-80
2022/01/01 16:15:07;;;;;;;8.27;5.77;;;12.60;99.90;;;;;;4992524;28;21042;-78
2022/01/01 16:17:37;;;;;;;8.50;5.77;;;12.60;99.90;;;;;;4985339;28;20451;-79
2022/01/01 16:20:05;;;;;;;5.83;5.23;;;12.60;99.90;;;;;;4984141;28;20959;-79
2022/01/01 16:22:33;;;;;;;6.93;5.50;;;12.50;99.90;;;;;;4978623;28;20945;-77
2022/01/01 16:25:00;;;;;;;8.70;4.80;;;12.40;99.90;;;;;;4972671;28;20487;-76
2022/01/01 16:27:28;;;;;;;11.60;5.33;;;12.40;99.90;;;;;;4975908;28;20922;-76
2022/01/01 16:29:57;;;;;;;9.70;5.60;;;12.30;99.90;;;;;;4982971;28;20475;-76
2022/01/01 16:32:25;;;;;;;8.23;5.90;;;12.30;99.90;;;;;;4981120;28;20503;-77
2022/01/01 16:34:53;;;;;;;10.70;5.93;;;12.20;99.90;;;;;;4980626;28;20518;-76
2022/01/01 16:37:21;;;;;;;9.50;5.73;;;12.10;99.90;;;;;;4992560;28;20550;-77
2022/01/01 16:39:48;;;;;;;9.57;5.73;;;12.10;99.90;;;;;;4992563;28;20458;-77
2022/01/01 16:42:22;;;;;;;10.60;5.90;;;12.00;99.90;;;;;;4992782;28;20534;-77
2022/01/01 16:44:55;;;;;;;5.83;5.23;;;12.00;99.90;;;;;;4993859;28;20558;-77
2022/01/01 16:47:29;;;;;;;8.90;6.20;;;11.90;99.90;;;;;;4996271;28;20487;-77
2022/01/01 16:50:08;;;;;;;8.70;6.20;;;11.80;99.90;;;;;;4996512;28;20515;-77
2022/01/01 16:52:40;;;;;;;8.20;5.70;;;11.80;99.90;;;;;;4996375;28;20505;-77
2022/01/01 16:55:08;;;;;;;8.20;5.87;;;11.70;99.90;;;;;;4996000;28;20897;-77
2022/01/01 16:57:37;;;;;;;7.87;5.47;;;11.70;99.90;;;;;;4996440;28;20529;-77
2022/01/01 17:00:10;;;;;;;9.17;5.90;;;11.60;99.90;;;;;;4996204;28;20479;-77
2022/01/01 17:02:40;;;;;;;8.13;6.17;;;11.60;99.90;;;;;;4996426;28;20997;-77
2022/01/01 17:05:09;;;;;;;13.67;6.60;;;11.60;99.90;;;;;;4996189;28;20510;-77
2022/01/01 17:07:37;;;;;;;11.90;6.97;;;11.50;99.90;;;;;;4995942;28;20451;-77
2022/01/01 17:10:07;;;;;;;9.60;6.80;;;11.50;99.90;;;;;;4996159;28;20492;-77
2022/01/01 17:12:35;;;;;;;12.90;7.13;;;11.40;99.90;;;;;;4995894;28;21004;-77
2022/01/01 17:15:03;;;;;;;10.37;6.80;;;11.30;99.90;;;;;;4995914;28;20877;-77
2022/01/01 17:17:39;;;;;;;17.23;10.70;;;11.30;99.90;;;;;;4995994;28;20446;-77
2022/01/01 17:20:13;;;;;;;31.67;15.87;;;11.30;99.90;;;;;;4995422;28;20489;-77
2022/01/01 17:22:45;;;;;;;21.23;12.90;;;11.30;99.90;;;;;;4996038;28;20465;-77
2022/01/01 17:25:14;;;;;;;23.67;13.40;;;11.20;99.90;;;;;;4995436;28;20905;-77
2022/01/01 17:27:45;;;;;;;16.23;11.40;;;11.20;99.90;;;;;;5017198;23;20581;-78
2022/01/01 17:30:13;;;;;;;18.80;12.27;;;11.20;99.90;;;;;;4983235;28;20479;-78
2022/01/01 17:32:45;;;;;;;21.17;15.07;;;11.10;99.90;;;;;;4984701;28;20601;-78
2022/01/01 17:35:38;;;;;;;25.97;15.87;;;11.10;99.90;;;;;;4976404;28;20475;-78
2022/01/01 17:40:52;;;;;;;27.03;16.33;;;11.00;99.90;;;;;;4956850;29;20468;-78
2022/01/01 17:43:23;;;;;;;24.20;14.40;;;10.90;99.90;;;;;;4957060;28;20445;-78
2022/01/01 17:45:53;;;;;;;19.40;12.93;;;10.80;99.90;;;;;;4956981;28;20444;-77
2022/01/01 17:48:24;;;;;;;17.60;12.17;;;10.80;99.90;;;;;;4957085;28;20547;-78
2022/01/01 17:51:02;;;;;;;20.63;12.47;;;10.70;99.90;;;;;;4956803;28;20457;-78
2022/01/01 17:53:32;;;;;;;22.07;14.83;;;10.70;99.90;;;;;;4956732;28;20535;-78
2022/01/01 17:56:01;;;;;;;12.90;9.70;;;10.60;99.90;;;;;;4956077;28;20926;-77
2022/01/01 17:58:29;;;;;;;15.10;8.70;;;10.60;99.90;;;;;;4956765;28;20457;-78